Time;durP1;ratioP1;P1;durP2;ratioP2;P2;SDS_P1;SDS_P2;PMS_P1;PMS_P2;Temp;Humidity;BMP_temperature;BMP_pressure;BME280_temperature;BME280_humidity;BME280_pressure;Samples;Min_cycle;Max_cycle;Signal;HPM_P1;HPM_P2
2021/01/15 00:01:43;;;;;;;7.87;6.30;;;1.90;99.90;;;;;;5003905;28;20211;-86
2021/01/15 00:04:09;;;;;;;8.27;6.40;;;1.90;99.90;;;;;;5001914;28;20178;-87
2021/01/15 00:06:35;;;;;;;12.23;8.00;;;2.00;99.90;;;;;;5002430;28;20173;-88
2021/01/15 00:09:00;;;;;;;10.27;6.73;;;2.00;99.90;;;;;;5002237;28;20177;-87
2021/01/15 00:11:29;;;;;;;11.60;6.97;;;2.10;99.90;;;;;;5004430;28;20672;-87
2021/01/15 00:13:56;;;;;;;8.00;5.17;;;2.10;99.90;;;;;;5003451;28;20264;-86
2021/01/15 00:16:24;;;;;;;13.10;6.13;;;2.20;99.90;;;;;;5003847;28;20413;-87
2021/01/15 00:18:51;;;;;;;8.87;5.30;;;2.20;99.90;;;;;;5002645;28;20497;-87
2021/01/15 00:21:28;;;;;;;9.43;6.77;;;2.20;99.90;;;;;;5004458;28;21203;-87
2021/01/15 00:23:56;;;;;;;9.87;5.90;;;2.20;99.90;;;;;;5001233;28;20438;-86
2021/01/15 00:26:24;;;;;;;11.53;6.13;;;2.20;99.90;;;;;;5002163;28;20934;-87
2021/01/15 00:28:50;;;;;;;9.57;6.03;;;2.30;99.90;;;;;;4986914;28;21000;-86
2021/01/15 00:31:16;;;;;;;10.60;7.50;;;2.30;99.90;;;;;;4987371;28;20970;-87
2021/01/15 00:33:42;;;;;;;10.07;6.40;;;2.30;99.90;;;;;;4988846;28;20436;-87
2021/01/15 00:36:08;;;;;;;11.30;7.83;;;2.30;99.90;;;;;;5001304;28;20170;-87
2021/01/15 00:38:35;;;;;;;12.73;7.60;;;2.30;99.90;;;;;;5001376;28;20177;-87
2021/01/15 00:41:05;;;;;;;10.13;7.23;;;2.30;99.90;;;;;;5001720;28;20553;-87
2021/01/15 00:43:31;;;;;;;11.90;6.47;;;2.40;99.90;;;;;;5004870;28;20746;-86
2021/01/15 00:45:57;;;;;;;11.50;7.93;;;2.40;99.90;;;;;;5003923;28;20431;-87
2021/01/15 00:48:22;;;;;;;9.63;6.70;;;2.40;99.90;;;;;;4999583;28;20451;-87
2021/01/15 00:50:48;;;;;;;13.40;7.13;;;2.40;99.90;;;;;;5002322;28;20182;-87
2021/01/15 00:53:14;;;;;;;11.73;6.33;;;2.50;99.90;;;;;;5002922;28;20174;-87
2021/01/15 00:55:40;;;;;;;9.00;6.83;;;2.50;99.90;;;;;;4983875;28;20732;-88
2021/01/15 00:58:06;;;;;;;10.33;6.40;;;2.40;99.90;;;;;;4988525;28;20421;-86
2021/01/15 01:00:32;;;;;;;10.53;7.37;;;2.40;99.90;;;;;;5000257;28;20520;-87
2021/01/15 01:02:57;;;;;;;10.23;6.83;;;2.40;99.90;;;;;;5002698;28;20999;-87
2021/01/15 01:05:24;;;;;;;8.27;6.10;;;2.50;99.90;;;;;;5002829;28;20190;-87
2021/01/15 01:07:52;;;;;;;11.20;7.00;;;2.50;99.90;;;;;;5004780;28;20209;-87
2021/01/15 01:10:18;;;;;;;12.97;7.57;;;2.40;99.90;;;;;;4985026;28;20490;-88
2021/01/15 01:12:44;;;;;;;8.33;6.03;;;2.50;99.90;;;;;;5007416;28;20423;-88
2021/01/15 01:15:14;;;;;;;8.90;5.23;;;2.50;99.90;;;;;;5007271;28;20420;-88
2021/01/15 01:17:40;;;;;;;7.77;5.77;;;2.50;99.90;;;;;;5000466;28;20424;-88
2021/01/15 01:20:08;;;;;;;8.93;5.70;;;2.50;99.90;;;;;;5003852;28;20766;-87
2021/01/15 01:22:34;;;;;;;7.80;6.00;;;2.50;99.90;;;;;;5002164;28;20426;-87
2021/01/15 01:24:59;;;;;;;8.40;4.80;;;2.50;99.90;;;;;;4984262;28;20426;-87
2021/01/15 01:27:25;;;;;;;9.60;5.30;;;2.40;99.90;;;;;;4984610;28;20853;-87
2021/01/15 01:29:51;;;;;;;10.93;6.33;;;2.30;99.90;;;;;;4972579;28;20266;-86
2021/01/15 01:32:17;;;;;;;6.23;3.80;;;2.10;99.90;;;;;;5001865;28;20196;-86
2021/01/15 01:34:42;;;;;;;7.40;4.83;;;2.20;99.90;;;;;;5001119;28;20424;-87
2021/01/15 01:37:08;;;;;;;11.50;5.47;;;2.20;99.90;;;;;;4993530;28;20192;-87
2021/01/15 01:39:34;;;;;;;7.90;5.00;;;2.30;99.90;;;;;;4986735;28;20211;-87
2021/01/15 01:41:59;;;;;;;6.33;5.03;;;2.30;99.90;;;;;;4986469;28;20223;-87
2021/01/15 01:44:25;;;;;;;10.93;4.33;;;2.30;99.90;;;;;;4984029;28;20187;-87
2021/01/15 01:46:52;;;;;;;7.37;5.10;;;2.30;99.90;;;;;;5001194;28;20224;-87
2021/01/15 01:49:18;;;;;;;9.57;5.00;;;2.30;99.90;;;;;;5002820;28;20230;-87
2021/01/15 01:51:45;;;;;;;9.77;5.33;;;2.40;99.90;;;;;;5000870;28;20774;-86
2021/01/15 01:54:11;;;;;;;8.50;5.20;;;2.40;99.90;;;;;;5001513;28;20421;-88
2021/01/15 01:56:38;;;;;;;7.40;5.37;;;2.40;99.90;;;;;;4984421;28;20430;-87
2021/01/15 01:59:06;;;;;;;8.07;4.67;;;2.40;99.90;;;;;;5005228;28;20473;-87
2021/01/15 02:01:31;;;;;;;7.77;5.13;;;2.40;99.90;;;;;;4989079;28;20995;-88
2021/01/15 02:04:04;;;;;;;7.80;5.77;;;2.50;99.90;;;;;;4986725;28;20509;-87
2021/01/15 02:06:34;;;;;;;7.27;5.00;;;2.50;99.90;;;;;;5000336;28;20599;-88
2021/01/15 02:09:04;;;;;;;6.80;6.07;;;2.50;99.90;;;;;;5001054;28;20476;-87
2021/01/15 02:11:39;;;;;;;10.23;5.33;;;2.50;99.90;;;;;;4995275;28;20856;-87
2021/01/15 02:14:10;;;;;;;8.90;5.77;;;2.50;99.90;;;;;;5003432;28;20413;-86
2021/01/15 02:16:37;;;;;;;10.87;6.73;;;2.50;99.90;;;;;;5005269;28;20454;-87
2021/01/15 02:19:43;;;;;;;8.50;6.10;;;2.50;99.90;;;;;;4988435;28;20422;-87
2021/01/15 02:22:14;;;;;;;9.23;5.93;;;2.60;99.90;;;;;;5006895;28;20409;-87
2021/01/15 02:24:58;;;;;;;6.03;4.53;;;2.60;99.90;;;;;;5005301;28;20473;-87
2021/01/15 02:27:45;;;;;;;7.60;5.60;;;2.50;99.90;;;;;;4986883;28;20426;-87
2021/01/15 02:30:34;;;;;;;8.33;6.00;;;2.60;99.90;;;;;;5005472;28;20422;-86
2021/01/15 02:33:23;;;;;;;7.40;4.93;;;2.60;99.90;;;;;;5004817;28;20413;-86
2021/01/15 02:35:58;;;;;;;8.97;5.60;;;2.60;99.90;;;;;;5002973;28;20800;-85
2021/01/15 02:38:45;;;;;;;7.57;5.83;;;2.60;99.90;;;;;;5004943;28;20425;-86
2021/01/15 02:41:20;;;;;;;7.70;5.60;;;2.60;99.90;;;;;;5005495;28;20487;-86
2021/01/15 02:43:53;;;;;;;9.30;6.33;;;2.60;99.90;;;;;;5005953;28;20471;-85
2021/01/15 02:46:31;;;;;;;7.20;5.47;;;2.70;99.90;;;;;;5005274;28;20420;-86
2021/01/15 02:48:58;;;;;;;12.00;6.47;;;2.70;99.90;;;;;;5006016;28;20445;-86
2021/01/15 02:51:25;;;;;;;9.23;5.57;;;2.70;99.90;;;;;;4986096;28;20424;-87
2021/01/15 02:53:51;;;;;;;8.80;5.43;;;2.70;99.90;;;;;;4988166;28;20996;-87
2021/01/15 02:56:16;;;;;;;10.50;6.80;;;2.70;99.90;;;;;;5004549;28;20517;-87
2021/01/15 02:58:42;;;;;;;13.60;7.10;;;2.70;99.90;;;;;;5005778;28;20252;-87
2021/01/15 03:01:08;;;;;;;9.23;5.73;;;2.70;99.90;;;;;;5003339;28;20210;-87
2021/01/15 03:03:41;;;;;;;7.27;6.20;;;2.70;99.90;;;;;;4988796;28;20609;-87
2021/01/15 03:06:30;;;;;;;11.00;6.97;;;2.70;99.90;;;;;;4988618;28;20937;-88
2021/01/15 03:08:58;;;;;;;10.67;6.53;;;2.70;99.90;;;;;;5018838;28;20428;-87
2021/01/15 03:11:26;;;;;;;11.27;7.27;;;2.70;99.90;;;;;;5005786;28;20443;-87
2021/01/15 03:13:53;;;;;;;8.17;6.27;;;2.70;99.90;;;;;;5004166;28;20418;-87
2021/01/15 03:16:19;;;;;;;9.13;6.37;;;2.70;99.90;;;;;;5003452;28;20430;-87
2021/01/15 03:18:45;;;;;;;10.07;7.70;;;2.70;99.90;;;;;;4988103;28;20805;-88
2021/01/15 03:21:12;;;;;;;8.37;6.67;;;2.70;99.90;;;;;;5006504;28;20547;-87
2021/01/15 03:23:38;;;;;;;9.37;6.03;;;2.70;99.90;;;;;;4991427;28;20444;-87
2021/01/15 03:26:04;;;;;;;11.93;6.90;;;2.70;99.90;;;;;;5004285;28;20425;-87
2021/01/15 03:28:30;;;;;;;7.77;5.73;;;2.70;99.90;;;;;;5013516;28;20174;-87
2021/01/15 03:30:56;;;;;;;12.20;6.70;;;2.70;99.90;;;;;;4998289;28;20759;-88
2021/01/15 03:33:21;;;;;;;11.53;6.53;;;2.70;99.90;;;;;;4998558;28;20225;-88
2021/01/15 03:35:47;;;;;;;9.40;6.73;;;2.70;99.90;;;;;;4998781;28;20222;-88
2021/01/15 03:38:13;;;;;;;13.43;6.93;;;2.70;99.90;;;;;;4998342;28;20189;-89
2021/01/15 03:40:42;;;;;;;8.90;5.70;;;2.70;99.90;;;;;;5015575;28;20221;-86
2021/01/15 03:43:21;;;;;;;10.00;6.40;;;2.70;99.90;;;;;;5016002;28;20426;-89
2021/01/15 03:45:51;;;;;;;8.93;5.00;;;2.80;99.90;;;;;;5015948;28;20408;-88
2021/01/15 03:48:21;;;;;;;10.70;7.30;;;2.70;99.90;;;;;;4998174;28;20814;-89
2021/01/15 03:50:47;;;;;;;9.17;5.90;;;2.70;99.90;;;;;;4998195;28;20846;-88
2021/01/15 03:53:14;;;;;;;8.73;6.17;;;2.80;99.90;;;;;;5015949;28;20895;-87
2021/01/15 03:55:39;;;;;;;10.43;6.33;;;2.70;99.90;;;;;;4997997;28;20424;-88
2021/01/15 03:58:05;;;;;;;12.03;7.03;;;2.80;99.90;;;;;;4998073;28;20776;-87
2021/01/15 04:00:31;;;;;;;10.30;6.77;;;2.80;99.90;;;;;;5015345;28;20214;-87
2021/01/15 04:02:56;;;;;;;8.67;5.97;;;2.80;99.90;;;;;;5015365;28;20179;-87
2021/01/15 04:05:22;;;;;;;8.23;6.10;;;2.80;99.90;;;;;;5015411;28;20178;-89
2021/01/15 04:07:48;;;;;;;13.03;8.70;;;2.80;99.90;;;;;;4997764;28;20185;-87
2021/01/15 04:10:16;;;;;;;14.03;7.07;;;2.70;99.90;;;;;;5014794;28;20175;-89
2021/01/15 04:12:43;;;;;;;10.90;6.40;;;2.70;99.90;;;;;;4997788;28;20176;-87
2021/01/15 04:15:09;;;;;;;10.80;6.10;;;2.70;99.90;;;;;;5015336;28;20479;-86
2021/01/15 04:17:36;;;;;;;9.50;6.37;;;2.70;99.90;;;;;;4997580;28;20537;-86
2021/01/15 04:20:07;;;;;;;8.57;5.47;;;2.70;99.90;;;;;;4997347;28;20470;-88
2021/01/15 04:22:34;;;;;;;8.87;6.20;;;2.70;99.90;;;;;;5014943;28;20410;-86
2021/01/15 04:25:00;;;;;;;8.77;5.93;;;2.70;99.90;;;;;;5014495;28;20586;-85
2021/01/15 04:27:29;;;;;;;11.73;7.23;;;2.70;99.90;;;;;;5014678;28;20774;-86
2021/01/15 04:29:55;;;;;;;9.60;6.77;;;2.60;99.90;;;;;;4997096;28;20437;-87
2021/01/15 04:32:22;;;;;;;9.53;5.50;;;2.70;99.90;;;;;;5014531;28;20424;-85
2021/01/15 04:34:47;;;;;;;7.30;5.80;;;2.70;99.90;;;;;;4997050;28;20181;-87
2021/01/15 04:37:13;;;;;;;9.53;5.40;;;2.70;99.90;;;;;;4997139;28;20515;-86
2021/01/15 04:39:39;;;;;;;10.23;6.37;;;2.70;99.90;;;;;;5012913;28;20206;-86
2021/01/15 04:42:05;;;;;;;11.40;5.90;;;2.70;99.90;;;;;;5013134;28;20594;-86
2021/01/15 04:44:31;;;;;;;9.93;5.50;;;2.70;99.90;;;;;;4996636;28;20210;-86
2021/01/15 04:46:57;;;;;;;8.70;5.63;;;2.60;99.90;;;;;;4996688;28;20457;-87
2021/01/15 04:49:26;;;;;;;10.43;6.13;;;2.60;99.90;;;;;;5013968;28;20465;-87
2021/01/15 04:51:57;;;;;;;7.13;4.17;;;2.60;99.90;;;;;;4996681;28;20482;-88
2021/01/15 04:54:34;;;;;;;11.20;6.50;;;2.60;99.90;;;;;;4996496;28;21136;-87
2021/01/15 04:57:06;;;;;;;8.70;5.70;;;2.60;99.90;;;;;;4996621;28;20461;-88
2021/01/15 04:59:46;;;;;;;10.33;5.57;;;2.60;99.90;;;;;;5014204;28;20460;-87
2021/01/15 05:02:15;;;;;;;8.17;5.30;;;2.60;99.90;;;;;;4996513;28;20500;-87
2021/01/15 05:04:41;;;;;;;7.10;4.63;;;2.60;99.90;;;;;;5014110;28;20410;-87
2021/01/15 05:07:09;;;;;;;8.57;5.00;;;2.60;99.90;;;;;;5014202;28;20436;-87
2021/01/15 05:09:43;;;;;;;9.37;4.97;;;2.60;99.90;;;;;;5013923;28;20444;-86
2021/01/15 05:12:13;;;;;;;6.50;4.67;;;2.50;99.90;;;;;;5014170;28;20995;-87
2021/01/15 05:14:41;;;;;;;8.50;5.00;;;2.50;99.90;;;;;;5013786;28;20421;-89
2021/01/15 05:17:08;;;;;;;11.27;4.90;;;2.50;99.90;;;;;;5013740;28;20408;-86
2021/01/15 05:19:38;;;;;;;7.27;4.30;;;2.50;99.90;;;;;;5013589;28;20551;-86
2021/01/15 05:22:04;;;;;;;7.40;4.80;;;2.50;99.90;;;;;;5013349;28;20425;-86
2021/01/15 05:24:30;;;;;;;9.83;6.03;;;2.50;99.90;;;;;;4995457;28;20473;-87
2021/01/15 05:26:58;;;;;;;7.67;4.33;;;2.50;99.90;;;;;;5013705;28;20424;-87
2021/01/15 05:29:24;;;;;;;7.80;5.30;;;2.50;99.90;;;;;;4995958;28;20514;-87
2021/01/15 05:31:54;;;;;;;6.60;4.03;;;2.50;99.90;;;;;;4995933;28;20902;-87
2021/01/15 05:34:22;;;;;;;7.37;5.07;;;2.40;99.90;;;;;;4995944;28;20195;-87
2021/01/15 05:36:47;;;;;;;10.40;5.50;;;2.40;99.90;;;;;;4996273;28;20478;-88
2021/01/15 05:39:13;;;;;;;9.57;5.17;;;2.40;99.90;;;;;;5013348;28;20827;-86
2021/01/15 05:41:39;;;;;;;6.53;4.40;;;2.50;99.90;;;;;;5013581;28;20212;-87
2021/01/15 05:44:06;;;;;;;6.33;3.70;;;2.50;99.90;;;;;;4996057;28;20553;-87
2021/01/15 05:46:32;;;;;;;9.43;5.20;;;2.50;99.90;;;;;;4979475;28;20476;-86
2021/01/15 05:49:08;;;;;;;6.60;5.40;;;2.50;99.90;;;;;;4995531;28;20511;-87
2021/01/15 05:51:35;;;;;;;5.50;4.50;;;2.40;99.90;;;;;;4995059;28;20656;-86
2021/01/15 05:54:03;;;;;;;7.90;4.80;;;2.50;99.90;;;;;;5011345;28;20468;-87
2021/01/15 05:56:45;;;;;;;9.93;5.03;;;2.50;99.90;;;;;;5013274;28;20426;-86
2021/01/15 05:59:14;;;;;;;9.93;5.10;;;2.40;99.90;;;;;;4995472;28;20937;-86
2021/01/15 06:01:43;;;;;;;8.97;4.70;;;2.40;99.90;;;;;;4995543;28;21011;-86
2021/01/15 06:04:10;;;;;;;6.80;4.90;;;2.30;99.90;;;;;;4995688;28;20449;-88
2021/01/15 06:06:36;;;;;;;7.30;5.87;;;2.30;99.90;;;;;;4995965;28;20948;-88
2021/01/15 06:09:07;;;;;;;7.23;4.97;;;2.30;99.90;;;;;;4995613;28;20436;-87
2021/01/15 06:11:40;;;;;;;7.70;5.57;;;2.20;99.90;;;;;;5013384;28;20416;-88
2021/01/15 06:14:29;;;;;;;9.53;5.67;;;2.20;99.90;;;;;;5013701;28;20447;-89
2021/01/15 06:17:03;;;;;;;8.93;4.83;;;2.20;99.90;;;;;;4996164;28;20927;-87
2021/01/15 06:19:54;;;;;;;8.50;5.10;;;2.20;99.90;;;;;;4996004;28;20457;-89
2021/01/15 06:22:36;;;;;;;8.37;5.70;;;2.30;99.90;;;;;;4996123;28;20448;-88
2021/01/15 06:25:06;;;;;;;8.57;5.27;;;2.30;99.90;;;;;;5013606;28;20463;-89
2021/01/15 06:27:56;;;;;;;7.27;5.40;;;2.30;99.90;;;;;;4996083;28;20411;-88
2021/01/15 06:30:25;;;;;;;9.00;4.47;;;2.30;99.90;;;;;;5013707;28;20414;-88
2021/01/15 06:32:52;;;;;;;10.03;5.77;;;2.30;99.90;;;;;;4996005;28;20421;-88
2021/01/15 06:35:28;;;;;;;7.03;5.10;;;2.30;99.90;;;;;;4996338;28;20409;-88
2021/01/15 06:38:08;;;;;;;8.97;5.07;;;2.30;99.90;;;;;;4995989;28;20954;-89
2021/01/15 06:40:40;;;;;;;6.40;5.03;;;2.30;99.90;;;;;;4995751;28;20478;-88
2021/01/15 06:43:11;;;;;;;9.47;5.57;;;2.20;99.90;;;;;;4995968;28;20832;-88
2021/01/15 06:45:45;;;;;;;9.87;5.97;;;2.30;99.90;;;;;;4995810;28;20412;-88
2021/01/15 06:48:16;;;;;;;7.90;6.00;;;2.20;99.90;;;;;;4995272;28;20488;-88
2021/01/15 06:50:44;;;;;;;9.43;5.87;;;2.10;99.90;;;;;;4994956;28;20419;-87
2021/01/15 06:53:30;;;;;;;11.50;7.50;;;2.10;99.90;;;;;;4994493;28;20421;-87
2021/01/15 06:56:03;;;;;;;13.13;7.33;;;2.10;99.90;;;;;;4994622;28;20424;-88
2021/01/15 06:58:42;;;;;;;8.80;5.70;;;2.00;99.90;;;;;;5012619;28;20477;-88
2021/01/15 07:01:32;;;;;;;8.53;6.00;;;2.00;99.90;;;;;;5012731;28;20467;-85
2021/01/15 07:04:24;;;;;;;10.70;6.80;;;2.00;99.90;;;;;;5016241;28;20796;-89
2021/01/15 07:07:08;;;;;;;8.80;6.13;;;2.00;99.90;;;;;;4998527;28;20425;-87
2021/01/15 07:09:35;;;;;;;10.37;6.70;;;2.10;99.90;;;;;;4997539;28;20467;-85
2021/01/15 07:12:39;;;;;;;7.93;6.33;;;2.10;99.90;;;;;;4997850;28;20420;-85
2021/01/15 07:15:17;;;;;;;10.93;5.80;;;2.10;99.90;;;;;;4988965;28;20425;-85
2021/01/15 07:17:47;;;;;;;9.20;5.97;;;2.10;99.90;;;;;;4997898;28;20464;-86
2021/01/15 07:20:18;;;;;;;8.10;5.37;;;2.10;99.90;;;;;;5014884;28;20641;-86
2021/01/15 07:23:17;;;;;;;7.80;6.30;;;2.10;99.90;;;;;;4997499;28;20478;-85
2021/01/15 07:25:49;;;;;;;8.50;5.87;;;2.10;99.90;;;;;;4997618;28;20415;-83
2021/01/15 07:28:15;;;;;;;10.77;7.03;;;2.10;99.90;;;;;;4985070;28;20439;-85
2021/01/15 07:30:42;;;;;;;9.20;6.33;;;2.10;99.90;;;;;;4993247;28;20413;-85
2021/01/15 07:33:08;;;;;;;11.20;6.33;;;2.20;99.90;;;;;;5007941;28;20423;-89
2021/01/15 07:35:38;;;;;;;11.60;6.10;;;2.20;99.90;;;;;;4996698;28;20778;-85
2021/01/15 07:38:14;;;;;;;10.87;7.10;;;2.20;99.90;;;;;;4977231;28;20433;-85
2021/01/15 07:40:41;;;;;;;10.00;6.23;;;2.10;99.90;;;;;;4998345;28;20830;-85
2021/01/15 07:43:30;;;;;;;11.87;6.00;;;2.10;99.90;;;;;;5015880;28;20412;-92
2021/01/15 07:45:57;;;;;;;10.33;6.57;;;2.00;99.90;;;;;;5014181;28;20426;-87
2021/01/15 07:48:23;;;;;;;9.07;5.70;;;2.00;99.90;;;;;;5014519;28;20460;-85
2021/01/15 07:50:50;;;;;;;10.30;6.20;;;2.10;99.90;;;;;;5013645;28;20431;-87
2021/01/15 07:53:23;;;;;;;10.23;6.50;;;2.10;99.90;;;;;;5015299;28;20641;-87
2021/01/15 07:55:56;;;;;;;12.70;7.10;;;2.10;99.90;;;;;;5014002;28;20516;-84
2021/01/15 07:58:44;;;;;;;10.00;5.90;;;2.10;99.90;;;;;;5015044;28;20435;-87
2021/01/15 08:01:16;;;;;;;7.73;5.63;;;2.10;99.90;;;;;;5015871;28;20895;-86
2021/01/15 08:03:52;;;;;;;7.10;5.43;;;2.20;99.90;;;;;;5016323;28;20468;-88
2021/01/15 08:06:19;;;;;;;11.47;6.30;;;2.10;99.90;;;;;;5015012;28;20432;-86
2021/01/15 08:08:58;;;;;;;11.27;7.40;;;2.10;99.90;;;;;;5014154;28;20427;-87
2021/01/15 08:11:24;;;;;;;12.87;6.80;;;2.10;99.90;;;;;;5014992;28;20447;-88
2021/01/15 08:14:08;;;;;;;12.43;7.20;;;2.10;99.90;;;;;;5014499;28;20417;-89
2021/01/15 08:16:34;;;;;;;10.10;6.00;;;2.10;99.90;;;;;;5014342;28;20424;-87
2021/01/15 08:19:00;;;;;;;9.93;6.33;;;2.10;99.90;;;;;;5015882;28;20420;-88
2021/01/15 08:21:27;;;;;;;8.47;7.20;;;2.10;99.90;;;;;;5016190;28;20557;-88
2021/01/15 08:24:02;;;;;;;10.23;6.50;;;2.00;99.90;;;;;;4995851;28;20189;-89
2021/01/15 08:26:43;;;;;;;9.70;7.00;;;2.00;99.90;;;;;;4998570;28;20516;-88
2021/01/15 08:29:08;;;;;;;7.60;6.90;;;2.00;99.90;;;;;;5014115;28;21022;-89
2021/01/15 08:31:34;;;;;;;9.40;6.43;;;1.90;99.90;;;;;;5014555;28;20508;-87
2021/01/15 08:34:21;;;;;;;8.70;4.97;;;1.90;99.90;;;;;;5015719;28;20176;-89
2021/01/15 08:36:49;;;;;;;12.00;8.30;;;1.90;99.90;;;;;;5016178;28;20435;-85
2021/01/15 08:39:15;;;;;;;11.07;7.93;;;1.80;99.90;;;;;;5014072;28;20487;-86
2021/01/15 08:41:41;;;;;;;9.50;5.83;;;1.80;99.90;;;;;;4998144;28;20947;-86
2021/01/15 08:44:08;;;;;;;9.07;7.70;;;1.80;99.90;;;;;;5015025;28;20277;-85
2021/01/15 08:46:34;;;;;;;9.23;6.90;;;1.90;99.90;;;;;;5014545;28;20445;-87
2021/01/15 08:49:05;;;;;;;9.57;7.40;;;1.90;99.90;;;;;;5014257;28;20458;-88
2021/01/15 08:51:34;;;;;;;10.27;6.30;;;1.90;99.90;;;;;;5012676;28;20953;-86
2021/01/15 08:54:04;;;;;;;10.23;6.73;;;1.90;99.90;;;;;;5012236;28;20419;-87
2021/01/15 08:56:37;;;;;;;7.97;6.17;;;1.90;99.90;;;;;;5013700;28;20412;-85
2021/01/15 08:59:27;;;;;;;11.70;7.37;;;2.00;99.90;;;;;;5012466;28;20412;-88
2021/01/15 09:02:01;;;;;;;9.17;7.00;;;2.00;99.90;;;;;;5013856;28;20436;-86
2021/01/15 09:04:31;;;;;;;12.33;7.87;;;2.10;99.90;;;;;;5013778;28;20409;-87
2021/01/15 09:06:58;;;;;;;12.07;7.53;;;2.10;99.90;;;;;;5013444;28;20431;-86
2021/01/15 09:09:27;;;;;;;11.17;6.57;;;2.00;99.90;;;;;;5013201;28;20403;-85
2021/01/15 09:11:53;;;;;;;14.10;8.17;;;2.00;99.90;;;;;;5013899;28;20427;-87
2021/01/15 09:14:21;;;;;;;10.03;7.30;;;1.90;99.90;;;;;;5013435;28;20414;-87
2021/01/15 09:16:52;;;;;;;12.40;7.60;;;2.00;99.90;;;;;;5013535;28;20507;-85
2021/01/15 09:19:18;;;;;;;10.67;7.27;;;1.90;99.90;;;;;;5013206;28;20487;-86
2021/01/15 09:21:56;;;;;;;10.63;7.90;;;1.90;99.90;;;;;;4996020;28;20521;-88
2021/01/15 09:24:23;;;;;;;12.80;7.83;;;1.90;99.90;;;;;;5012305;28;20422;-86
2021/01/15 09:26:55;;;;;;;10.50;6.47;;;2.00;99.90;;;;;;5013858;28;20432;-88
2021/01/15 09:29:21;;;;;;;12.03;7.20;;;2.00;99.90;;;;;;5013659;28;20447;-87
2021/01/15 09:31:46;;;;;;;12.57;8.27;;;2.00;99.90;;;;;;4995387;28;20428;-87
2021/01/15 09:34:15;;;;;;;13.17;7.30;;;2.00;99.90;;;;;;4995643;28;20188;-86
2021/01/15 09:36:42;;;;;;;12.20;8.03;;;2.00;99.90;;;;;;4995674;28;20242;-87
2021/01/15 09:39:07;;;;;;;12.60;8.67;;;2.00;99.90;;;;;;5012857;28;20423;-87
2021/01/15 09:41:33;;;;;;;16.33;8.57;;;2.10;99.90;;;;;;4995570;28;20554;-87
2021/01/15 09:43:58;;;;;;;10.63;6.87;;;2.10;99.90;;;;;;4996435;28;20660;-87
2021/01/15 09:46:28;;;;;;;12.80;7.90;;;2.20;99.90;;;;;;5013282;28;20226;-88
2021/01/15 09:48:56;;;;;;;13.53;8.87;;;2.10;99.90;;;;;;4995478;28;20232;-87
2021/01/15 09:51:23;;;;;;;11.30;6.10;;;2.10;99.90;;;;;;4995742;28;20429;-87
2021/01/15 09:53:49;;;;;;;14.07;7.37;;;2.10;99.90;;;;;;4995240;28;20945;-87
2021/01/15 09:56:25;;;;;;;12.07;8.30;;;2.20;99.90;;;;;;5013184;28;20421;-88
2021/01/15 09:58:50;;;;;;;10.87;6.17;;;2.20;99.90;;;;;;4995755;28;20225;-87
2021/01/15 10:01:17;;;;;;;12.67;7.90;;;2.20;99.90;;;;;;5012807;28;20474;-84
2021/01/15 10:03:43;;;;;;;9.57;6.77;;;2.00;99.90;;;;;;5012322;28;20182;-85
2021/01/15 10:06:14;;;;;;;8.30;7.00;;;2.00;99.90;;;;;;5012611;28;20450;-84
2021/01/15 10:08:39;;;;;;;13.07;8.10;;;2.00;99.90;;;;;;5012290;28;20409;-85
2021/01/15 10:11:05;;;;;;;11.07;6.60;;;1.90;99.90;;;;;;5012776;28;20423;-85
2021/01/15 10:13:30;;;;;;;13.87;9.30;;;2.00;99.90;;;;;;4995564;28;20213;-86
2021/01/15 10:15:56;;;;;;;11.43;7.87;;;2.00;99.90;;;;;;5012995;28;20202;-86
2021/01/15 10:18:22;;;;;;;12.20;7.77;;;2.00;99.90;;;;;;4994960;28;20213;-86
2021/01/15 10:20:47;;;;;;;13.30;7.37;;;2.00;99.90;;;;;;4995249;28;20213;-86
2021/01/15 10:23:13;;;;;;;13.17;8.67;;;2.00;99.90;;;;;;5012182;28;20405;-86
2021/01/15 10:25:41;;;;;;;13.00;8.43;;;2.10;99.90;;;;;;4993936;28;20183;-87
2021/01/15 10:28:06;;;;;;;13.50;8.10;;;2.10;99.90;;;;;;4995202;28;20270;-86
2021/01/15 10:30:32;;;;;;;11.90;7.20;;;2.10;99.90;;;;;;4994983;28;20505;-86
2021/01/15 10:32:58;;;;;;;11.60;6.50;;;2.10;99.90;;;;;;4995083;28;20209;-85
2021/01/15 10:35:24;;;;;;;9.23;6.83;;;2.20;99.90;;;;;;4995186;28;20171;-87
2021/01/15 10:37:49;;;;;;;10.43;6.23;;;2.20;99.90;;;;;;4998834;28;20425;-85
2021/01/15 10:40:15;;;;;;;11.70;6.73;;;2.20;99.90;;;;;;5011898;28;20226;-85
2021/01/15 10:42:46;;;;;;;9.27;6.97;;;2.10;99.90;;;;;;4998490;28;20177;-87
2021/01/15 10:45:13;;;;;;;10.37;7.17;;;2.10;99.90;;;;;;5011324;28;20312;-86
2021/01/15 10:47:42;;;;;;;10.90;7.43;;;2.10;99.90;;;;;;4996572;28;20526;-86
2021/01/15 10:50:09;;;;;;;9.73;7.60;;;2.20;99.90;;;;;;5011644;28;20466;-86
2021/01/15 10:52:35;;;;;;;7.93;5.63;;;2.20;99.90;;;;;;5012667;28;20792;-87
2021/01/15 10:55:02;;;;;;;9.00;6.43;;;2.20;99.90;;;;;;4997869;28;20546;-86
2021/01/15 10:57:28;;;;;;;10.80;6.30;;;2.10;99.90;;;;;;5007726;28;20460;-86
2021/01/15 10:59:53;;;;;;;9.47;6.23;;;2.10;99.90;;;;;;4998472;28;20941;-87
2021/01/15 11:02:19;;;;;;;10.40;6.87;;;2.10;99.90;;;;;;5015707;28;20428;-85
2021/01/15 11:04:45;;;;;;;14.43;7.80;;;2.20;99.90;;;;;;5015956;28;20172;-86
2021/01/15 11:07:10;;;;;;;9.80;6.03;;;2.10;99.90;;;;;;5016559;28;20184;-86
2021/01/15 11:09:36;;;;;;;9.50;6.73;;;2.10;99.90;;;;;;5014830;28;20187;-85
2021/01/15 11:12:02;;;;;;;10.57;6.70;;;2.10;99.90;;;;;;4996951;28;20245;-87
2021/01/15 11:14:28;;;;;;;11.27;6.30;;;2.10;99.90;;;;;;4996314;28;20185;-86
2021/01/15 11:16:55;;;;;;;9.33;6.40;;;2.10;99.90;;;;;;5011839;28;20459;-86
2021/01/15 11:19:22;;;;;;;9.77;6.23;;;2.10;99.90;;;;;;5004810;28;20187;-87
2021/01/15 11:21:50;;;;;;;9.33;6.77;;;2.10;99.90;;;;;;5011446;28;20509;-87
2021/01/15 11:24:16;;;;;;;12.13;7.07;;;2.10;99.90;;;;;;5013617;28;20435;-87
2021/01/15 11:26:41;;;;;;;9.00;5.60;;;2.10;99.90;;;;;;5015088;28;20418;-88
2021/01/15 11:29:09;;;;;;;9.83;5.47;;;2.20;99.90;;;;;;5013870;28;20192;-86
2021/01/15 11:31:36;;;;;;;10.40;7.10;;;2.20;99.90;;;;;;5015331;28;20279;-83
2021/01/15 11:34:02;;;;;;;8.30;6.37;;;2.20;99.90;;;;;;5014849;28;20863;-84
2021/01/15 11:36:31;;;;;;;10.93;6.93;;;2.10;99.90;;;;;;4997170;28;20429;-85
2021/01/15 11:39:02;;;;;;;10.60;6.93;;;2.20;99.90;;;;;;4997031;28;20447;-84
2021/01/15 11:41:28;;;;;;;10.50;5.93;;;2.20;99.90;;;;;;5010014;28;20501;-86
2021/01/15 11:43:53;;;;;;;9.47;5.37;;;2.20;99.90;;;;;;5014816;28;20464;-86
2021/01/15 11:46:20;;;;;;;7.27;5.07;;;2.10;99.90;;;;;;5007252;28;20188;-85
2021/01/15 11:48:46;;;;;;;6.70;4.90;;;2.00;99.90;;;;;;5013309;28;20221;-85
2021/01/15 11:51:11;;;;;;;7.97;5.20;;;1.90;99.90;;;;;;5015487;28;20410;-84
2021/01/15 11:53:39;;;;;;;8.30;4.80;;;1.90;99.90;;;;;;5013101;28;20176;-85
2021/01/15 11:56:06;;;;;;;11.23;5.30;;;1.90;99.90;;;;;;5008831;28;21126;-85
2021/01/15 11:58:32;;;;;;;8.13;5.40;;;1.80;99.90;;;;;;4997676;28;20444;-85
2021/01/15 12:00:58;;;;;;;10.17;6.30;;;1.90;99.90;;;;;;4993862;28;20477;-86
2021/01/15 12:03:24;;;;;;;8.73;6.47;;;1.90;99.90;;;;;;5000892;28;20423;-86
2021/01/15 12:05:51;;;;;;;8.43;6.77;;;1.90;99.90;;;;;;5000220;28;20202;-86
2021/01/15 12:08:20;;;;;;;9.37;6.47;;;1.90;99.90;;;;;;4995560;28;20432;-84
2021/01/15 12:10:50;;;;;;;7.10;5.50;;;2.00;99.90;;;;;;5034295;22;20771;-85
2021/01/15 12:13:16;;;;;;;10.73;6.13;;;2.00;99.90;;;;;;4989837;28;20533;-84
2021/01/15 12:15:46;;;;;;;9.80;5.90;;;2.00;99.90;;;;;;4983460;28;20516;-86
2021/01/15 12:18:12;;;;;;;6.00;4.53;;;1.90;99.90;;;;;;5010048;28;20177;-85
2021/01/15 12:20:38;;;;;;;7.03;4.70;;;1.90;99.90;;;;;;5009794;28;20474;-84
2021/01/15 12:23:04;;;;;;;7.40;5.33;;;2.00;99.90;;;;;;4995180;28;20504;-86
2021/01/15 12:25:30;;;;;;;9.47;5.23;;;2.00;99.90;;;;;;5012162;28;20189;-87
2021/01/15 12:27:56;;;;;;;7.67;5.20;;;2.00;99.90;;;;;;5020967;28;20415;-87
2021/01/15 12:30:22;;;;;;;8.80;5.27;;;2.10;99.90;;;;;;5005625;28;20434;-88
2021/01/15 12:32:50;;;;;;;6.23;5.10;;;2.10;99.90;;;;;;5004483;28;20418;-86
2021/01/15 12:35:17;;;;;;;8.00;5.37;;;2.00;99.90;;;;;;5016539;28;20427;-85
2021/01/15 12:37:42;;;;;;;6.80;5.03;;;2.00;99.90;;;;;;5013249;28;20413;-88
2021/01/15 12:40:08;;;;;;;8.20;4.80;;;1.90;99.90;;;;;;5007868;28;20476;-89
2021/01/15 12:42:34;;;;;;;6.60;3.90;;;2.00;99.90;;;;;;4991623;28;20225;-88
2021/01/15 12:44:59;;;;;;;7.70;4.77;;;1.90;99.90;;;;;;4984892;28;20903;-89
2021/01/15 12:47:25;;;;;;;7.70;4.60;;;2.00;99.90;;;;;;4995514;28;20260;-88
2021/01/15 12:49:51;;;;;;;9.20;5.17;;;2.00;99.90;;;;;;4995401;28;20176;-87
2021/01/15 12:52:20;;;;;;;8.33;5.20;;;2.10;99.90;;;;;;5009848;28;20227;-88
2021/01/15 12:54:46;;;;;;;7.00;5.23;;;2.10;99.90;;;;;;5011139;28;20190;-87
2021/01/15 12:57:11;;;;;;;8.23;4.80;;;2.10;99.90;;;;;;4995843;28;20410;-87
2021/01/15 12:59:37;;;;;;;5.43;4.27;;;2.00;99.90;;;;;;4994286;28;20200;-86
2021/01/15 13:02:03;;;;;;;4.73;4.23;;;2.10;99.90;;;;;;5009910;28;20246;-88
2021/01/15 13:04:30;;;;;;;4.67;3.40;;;2.10;99.90;;;;;;4995125;28;20174;-84